Weather observations for the past three days for
Marion - Williamson County Regional Airport
| Date | Time (cdt) | Wind (kph) | Vis. (km) | Weather | Sky Cond. | Temperature (ºC) | Relative Humidity | Wind Chill (°C) | Heat Index (°C) | Pressure | Precipitation (cm) | ||||||
|---|---|---|---|---|---|---|---|---|---|---|---|---|---|---|---|---|---|
| Air | Dwpt | 6 hour | altimeter (cm) | sea level (mb) | 1 hr | 3 hr | 6 hr | ||||||||||
| Max. | Min. | ||||||||||||||||
| 06 | 00:55 | N 11 | 16.09 | Fair | CLR | 25 | 23 | 32.8 | 24.3 | 89% | 26 | 76 | 0.0 | ||||
| 06 | 00:35 | NE 6 | 16.09 | Fair | CLR | 25 | 23 | 89% | 26 | 76 | 0.0 | ||||||
| 06 | 00:15 | NE 6 | 16.09 | Fair | CLR | 26 | 23 | 84% | 28 | 76 | 0.0 | ||||||
| 05 | 23:55 | NE 6 | 16.09 | Fair | CLR | 25 | 23 | 89% | 26 | 76 | 0.0 | ||||||
| 05 | 23:35 | NE 7 | 16.09 | Fair | CLR | 25 | 22 | 83% | 26 | 75.97 | 0.0 | ||||||
| 05 | 23:15 | NE 4 | 16.09 | Fair | CLR | 26 | 22 | 79% | 28 | 75.97 | 0.0 | ||||||
| 05 | 22:55 | NE 4 | 16.09 | Fair | CLR | 26 | 21 | 74% | 27 | 75.95 | 0.0 | ||||||
| 05 | 22:35 | Calm | 16.09 | Fair | CLR | 27 | 21 | 70% | 29 | 75.95 | 0.0 | ||||||
| 05 | 22:15 | Calm | 14.48 | Fair | CLR | 27 | 21 | 70% | 29 | 75.95 | 0.0 | ||||||
| 05 | 21:55 | SE 2 | 16.09 | Fair | CLR | 27 | 21 | 70% | 29 | 75.95 | 0.0 | ||||||
| 05 | 21:35 | W 4 | 16.09 | A Few Clouds | FEW080 FEW090 | 27 | 22 | 74% | 29 | 75.95 | 0.0 | ||||||
| 05 | 21:15 | W 6 | 16.09 | A Few Clouds | FEW100 FEW110 | 29 | 21 | 62% | 31 | 75.92 | 0.0 | ||||||
| 05 | 20:55 | SW 6 | 16.09 | Partly Cloudy | FEW075 SCT095 SCT120 | 29 | 21 | 62% | 31 | 75.92 | 0.0 | ||||||
| 05 | 20:35 | Vrbl 2 | 16.09 | Fair | CLR | 29 | 21 | 62% | 31 | 75.9 | 0.0 | ||||||
| 05 | 20:15 | E 7 | 16.09 | A Few Clouds | FEW080 | 30 | 21 | 59% | 33 | 75.87 | 0.0 | ||||||
| 05 | 19:55 | Vrbl 6 | 16.09 | A Few Clouds | FEW090 | 31 | 21 | 55% | 34 | 75.87 | 0.0 | ||||||
| 05 | 19:36 | Vrbl 6 | 16.09 | Thunderstorm in Vicinity | BKN080 | 31 | 21 | 55% | 34 | 75.84 | 0.0 | ||||||
| 05 | 19:15 | SW 6 | 16.09 | A Few Clouds | FEW080 | 32 | 21 | 52% | 35 | 75.84 | 0.0 | ||||||
| 05 | 18:45 | SW 15 | 16.09 | Mostly Cloudy | SCT080 BKN110 | 33 | 22 | 52% | 37 | 75.87 | 0.0 | ||||||
| 05 | 17:45 | W 17 | 16.09 | Mostly Cloudy | SCT080 BKN110 | 36 | 22 | 44% | 41 | 75.82 | 0.0 | ||||||
| 05 | 16:45 | N 17 | 16.09 | Mostly Cloudy | BKN080 BKN110 | 38 | 21 | 37% | 42 | 75.82 | 0.0 | ||||||
| 05 | 15:45 | N 9 | 16.09 | Mostly Cloudy | BKN075 BKN100 | 38 | 21 | 37% | 42 | 75.87 | 0.0 | ||||||
| 05 | 14:45 | NW 11 | 16.09 | Mostly Cloudy | BKN075 BKN100 | 38 | 21 | 37% | 42 | 75.92 | 0.0 | ||||||
| 05 | 12:45 | W 7 | 16.09 | Fair | CLR | 37 | 21 | 39% | 41 | 76.02 | 0.0 | ||||||
| 05 | 11:45 | NW 17 | 16.09 | Fair | CLR | 36 | 21 | 42% | 40 | 76.07 | 0.0 | ||||||
| 05 | 10:45 | NW 15 | 16.09 | Fair | CLR | 35 | 22 | 47% | 39 | 76.1 | 0.0 | ||||||
| 05 | 09:45 | SW 9 | 16.09 | Fair | CLR | 33 | 23 | 56% | 38 | 76.1 | 0.0 | ||||||
| 05 | 08:45 | Calm | 16.09 | Partly Cloudy | FEW040 SCT070 | 28 | 24 | 79% | 32 | 76.12 | 0.0 | ||||||
| 05 | 07:45 | S 9 | 16.09 | Partly Cloudy | SCT070 | 27 | 24 | 84% | 30 | 76.1 | 0.0 | ||||||
| 05 | 06:45 | Calm | 16.09 | A Few Clouds | FEW055 | 24 | 23 | 94% | 23 | 76.07 | 0.0 | ||||||
| 05 | 06:35 | Calm | 16.09 | Fair | CLR | 24 | 24 | 100% | 23 | 76.07 | 0.0 | ||||||
| 05 | 06:13 | Calm | 16.09 | Fair | CLR | 24 | 24 | 100% | 23 | 76.05 | 0.0 | ||||||
| 05 | 05:53 | Calm | 16.09 | Fair | CLR | 24 | 24 | 100% | 23 | 76.05 | 0.0 | ||||||
| 05 | 05:35 | SE 2 | 16.09 | Fair | CLR | 24 | 24 | 100% | 23 | 76.05 | 0.0 | ||||||
| 05 | 05:15 | Calm | 16.09 | A Few Clouds | FEW095 | 24 | 24 | 100% | 23 | 76.05 | 0.0 | ||||||
| 05 | 04:55 | NE 2 | 16.09 | A Few Clouds | FEW095 | 23 | 23 | 100% | 76.05 | 0.0 | |||||||
| 05 | 04:36 | NE 2 | 16.09 | Fair | CLR | 24 | 24 | 100% | 23 | 76.02 | 0.0 | ||||||
| 05 | 04:16 | W 2 | 16.09 | Fair | CLR | 24 | 24 | 100% | 23 | 76.02 | 0.0 | ||||||
| 05 | 03:55 | SW 2 | 16.09 | Fair | CLR | 25 | 24 | 94% | 26 | 76.02 | 0.0 | ||||||
| 05 | 03:35 | Calm | 16.09 | Fair | CLR | 24 | 24 | 100% | 23 | 76.02 | 0.0 | ||||||
| 05 | 03:15 | W 2 | 16.09 | A Few Clouds | FEW100 | 25 | 24 | 94% | 26 | 76.02 | 0.0 | ||||||
| 05 | 02:55 | SW 2 | 16.09 | Fair | CLR | 26 | 23 | 84% | 28 | 76.05 | 0.0 | ||||||
| 05 | 02:35 | SW 6 | 16.09 | Fair | CLR | 26 | 22 | 79% | 28 | 76.02 | 0.0 | ||||||
| 05 | 02:15 | SW 6 | 16.09 | Fair | CLR | 26 | 22 | 79% | 28 | 76.05 | 0.0 | ||||||
| 05 | 01:55 | S 7 | 16.09 | Fair | CLR | 26 | 23 | 84% | 28 | 76.05 | 0.0 | ||||||
| 05 | 01:35 | SW 6 | 16.09 | Fair | CLR | 26 | 23 | 84% | 28 | 76.05 | 0.0 | ||||||
| 05 | 01:15 | S 6 | 16.09 | Fair | CLR | 27 | 23 | 79% | 30 | 76.05 | 0.0 | ||||||
| 05 | 00:55 | S 4 | 16.09 | Fair | CLR | 27 | 23 | 34 | 25.1 | 79% | 30 | 76.07 | 0.0 | ||||
| 05 | 00:35 | SW 6 | 16.09 | Fair | CLR | 26 | 22 | 79% | 28 | 76.07 | 0.0 | ||||||
| 05 | 00:15 | SW 4 | 16.09 | Fair | CLR | 28 | 22 | 70% | 31 | 76.07 | 0.0 | ||||||
| 04 | 23:55 | SW 7 | 16.09 | Fair | CLR | 27 | 22 | 74% | 29 | 76.07 | 0.0 | ||||||
| 04 | 23:35 | SW 6 | 16.09 | Fair | CLR | 27 | 22 | 74% | 29 | 76.07 | 0.0 | ||||||
| 04 | 23:15 | S 7 | 16.09 | Fair | CLR | 28 | 22 | 70% | 31 | 76.07 | 0.0 | ||||||
| 04 | 22:55 | SW 6 | 16.09 | Fair | CLR | 28 | 22 | 70% | 31 | 76.07 | 0.0 | ||||||
| 04 | 22:35 | S 6 | 16.09 | Fair | CLR | 29 | 22 | 66% | 32 | 76.07 | 0.0 | ||||||
| 04 | 22:15 | SW 4 | 16.09 | Fair | CLR | 28 | 22 | 70% | 31 | 76.1 | 0.0 | ||||||
| 04 | 21:55 | SW 6 | 16.09 | Fair | CLR | 29 | 22 | 66% | 32 | 76.1 | 0.0 | ||||||
| 04 | 21:35 | S 6 | 16.09 | Fair | CLR | 29 | 22 | 66% | 32 | 76.1 | 0.0 | ||||||
| 04 | 21:15 | SW 6 | 16.09 | Fair | CLR | 29 | 22 | 66% | 32 | 76.07 | 0.0 | ||||||
| 04 | 20:53 | SW 4 | 16.09 | Fair | CLR | 29 | 23 | 70% | 33 | 76.07 | 0.0 | ||||||
| 04 | 20:35 | SW 2 | 16.09 | Fair | CLR | 31 | 22 | 59% | 35 | 76.05 | 0.0 | ||||||
| 04 | 20:15 | S 4 | 16.09 | Fair | CLR | 31 | 22 | 59% | 35 | 76.02 | 0.0 | ||||||
| 04 | 19:53 | S 6 | 16.09 | Fair | CLR | 31 | 22 | 59% | 35 | 76 | 0.0 | ||||||
| 04 | 19:33 | S 6 | 16.09 | Fair | CLR | 32 | 22 | 55% | 36 | 76 | 0.0 | ||||||
| 04 | 19:15 | S 6 | 16.09 | Fair | CLR | 33 | 22 | 52% | 37 | 76 | 0.0 | ||||||
| 04 | 18:45 | SW 7 | 16.09 | Fair | CLR | 35 | 23 | 50% | 41 | 76 | 0.0 | ||||||
| 04 | 17:45 | S 9 | 16.09 | Partly Cloudy | SCT065 | 37 | 22 | 42% | 42 | 76 | 0.0 | ||||||
| 04 | 16:45 | S 13 | 16.09 | Partly Cloudy | SCT065 | 37 | 21 | 39% | 41 | 76.02 | 0.0 | ||||||
| 04 | 15:45 | SW 11 | 16.09 | Partly Cloudy | SCT065 | 37 | 22 | 42% | 42 | 76.12 | 0.0 | ||||||
| 04 | 14:45 | SW 11 | 16.09 | Partly Cloudy | SCT065 | 37 | 22 | 42% | 42 | 76.12 | 0.0 | ||||||
| 04 | 13:45 | W 15 | 16.09 | Partly Cloudy | SCT065 | 37 | 21 | 39% | 41 | 76.17 | 0.0 | ||||||
| 04 | 12:45 | SW 15 | 16.09 | Partly Cloudy | SCT065 | 36 | 22 | 44% | 41 | 76.2 | 0.0 | ||||||
| 04 | 11:45 | W 9 | 16.09 | Fair | CLR | 36 | 22 | 44% | 41 | 76.25 | 0.0 | ||||||
| 04 | 10:45 | NW 7 | 16.09 | Fair | CLR | 34 | 23 | 53% | 39 | 76.28 | 0.0 | ||||||
| 04 | 09:45 | Calm | 16.09 | Fair | CLR | 32 | 23 | 59% | 37 | 76.25 | 0.0 | ||||||
| 04 | 08:45 | Calm | 16.09 | Fair | CLR | 29 | 24 | 74% | 34 | 76.25 | 0.0 | ||||||
| 04 | 07:45 | Calm | 16.09 | Fair | CLR | 27 | 24 | 84% | 30 | 76.23 | 0.0 | ||||||
| 04 | 06:45 | Calm | 16.09 | Fair | CLR | 25 | 23 | 89% | 26 | 76.17 | 0.0 | ||||||
| 04 | 06:35 | SW 6 | 16.09 | Fair | CLR | 24 | 23 | 94% | 23 | 76.17 | 0.0 | ||||||
| 04 | 06:15 | SW 4 | 16.09 | Fair | CLR | 24 | 24 | 100% | 23 | 76.15 | 0.0 | ||||||
| 04 | 05:55 | SW 4 | 16.09 | Fair | CLR | 25 | 23 | 89% | 26 | 76.15 | 0.0 | ||||||
| 04 | 05:35 | SW 6 | 16.09 | Fair | CLR | 25 | 23 | 89% | 26 | 76.12 | 0.0 | ||||||
| 04 | 05:15 | SW 4 | 16.09 | Fair | CLR | 25 | 23 | 89% | 26 | 76.12 | 0.0 | ||||||
| 04 | 04:55 | S 2 | 16.09 | Fair | CLR | 24 | 24 | 100% | 23 | 76.12 | 0.0 | ||||||
| 04 | 04:35 | SW 4 | 16.09 | Fair | CLR | 25 | 23 | 89% | 26 | 76.12 | 0.0 | ||||||
| 04 | 04:15 | S 4 | 16.09 | Fair | CLR | 25 | 23 | 89% | 26 | 76.12 | 0.0 | ||||||
| 04 | 03:55 | S 2 | 16.09 | Fair | CLR | 25 | 23 | 89% | 26 | 76.12 | 0.0 | ||||||
| 04 | 03:35 | Calm | 16.09 | Fair | CLR | 25 | 23 | 89% | 26 | 76.12 | 0.0 | ||||||
| 04 | 03:15 | S 2 | 16.09 | Fair | CLR | 26 | 21 | 74% | 27 | 76.1 | 0.0 | ||||||
| 04 | 02:55 | S 6 | 16.09 | Fair | CLR | 27 | 21 | 70% | 29 | 76.1 | 0.0 | ||||||
| 04 | 02:35 | SW 6 | 16.09 | Fair | CLR | 27 | 21 | 70% | 29 | 76.1 | 0.0 | ||||||
| 04 | 02:13 | S 6 | 16.09 | Fair | CLR | 26 | 21 | 74% | 27 | 76.1 | 0.0 | ||||||
| 04 | 01:55 | S 6 | 16.09 | Fair | CLR | 26 | 22 | 79% | 28 | 76.1 | 0.0 | ||||||
| 04 | 01:35 | SW 4 | 16.09 | Fair | CLR | 27 | 21 | 70% | 29 | 76.12 | 0.0 | ||||||
| 04 | 01:15 | S 2 | 16.09 | Fair | CLR | 27 | 22 | 74% | 29 | 76.12 | 0.0 | ||||||
| 04 | 00:55 | S 2 | 16.09 | Fair | CLR | 26 | 22 | 32.9 | 25.3 | 79% | 28 | 76.12 | 0.0 | ||||
| 04 | 00:35 | Calm | 16.09 | Fair | CLR | 26 | 22 | 79% | 28 | 76.12 | 0.0 | ||||||
| 04 | 00:15 | S 4 | 16.09 | Fair | CLR | 28 | 21 | 66% | 30 | 76.12 | 0.0 | ||||||
| 03 | 23:55 | SW 6 | 16.09 | Fair | CLR | 28 | 21 | 66% | 30 | 76.12 | 0.0 | ||||||
| 03 | 23:35 | SW 7 | 16.09 | Fair | CLR | 27 | 21 | 70% | 29 | 76.12 | 0.0 | ||||||
| 03 | 23:15 | S 7 | 16.09 | Fair | CLR | 27 | 21 | 70% | 29 | 76.12 | 0.0 | ||||||
| 03 | 22:55 | S 4 | 16.09 | Fair | CLR | 28 | 22 | 70% | 31 | 76.12 | 0.0 | ||||||
| 03 | 22:35 | Calm | 16.09 | Fair | CLR | 28 | 21 | 66% | 30 | 76.12 | 0.0 | ||||||
| 03 | 22:15 | SW 2 | 16.09 | Fair | CLR | 29 | 22 | 66% | 32 | 76.15 | 0.0 | ||||||
| 03 | 21:55 | S 2 | 16.09 | Fair | CLR | 27 | 22 | 74% | 29 | 76.15 | 0.0 | ||||||
| 03 | 21:35 | E 2 | 16.09 | Fair | CLR | 27 | 22 | 74% | 29 | 76.12 | 0.0 | ||||||
| 03 | 21:15 | SW 2 | 16.09 | Fair | CLR | 28 | 22 | 70% | 31 | 76.12 | 0.0 | ||||||
| 03 | 20:55 | S 4 | 16.09 | Fair | CLR | 31 | 21 | 55% | 34 | 76.1 | 0.0 | ||||||
| 03 | 20:35 | SW 4 | 16.09 | Fair | CLR | 31 | 21 | 55% | 34 | 76.1 | 0.0 | ||||||
| 03 | 20:15 | SW 6 | 16.09 | Fair | CLR | 30 | 22 | 62% | 33 | 76.07 | 0.0 | ||||||
| 03 | 19:55 | SW 4 | 16.09 | Fair | CLR | 31 | 22 | 59% | 35 | 76.07 | 0.0 | ||||||
| 03 | 19:35 | Vrbl 4 | 16.09 | Fair | CLR | 32 | 22 | 55% | 36 | 76.07 | 0.0 | ||||||
| 03 | 19:15 | S 6 | 16.09 | Fair | CLR | 31 | 22 | 59% | 35 | 76.05 | 0.0 | ||||||
| 03 | 18:45 | S 11 | 16.09 | Fair | CLR | 34 | 22 | 50% | 38 | 76.05 | 0.0 | ||||||
| 03 | 17:45 | S 15 | 16.09 | Fair | CLR | 36 | 21 | 42% | 40 | 76.02 | 0.0 | ||||||
| 03 | 16:45 | SW 19 | 16.09 | Partly Cloudy | SCT060 | 37 | 21 | 39% | 41 | 76.05 | 0.0 | ||||||
| 03 | 15:45 | SW 11 | 16.09 | Mostly Cloudy | BKN052 | 37 | 21 | 39% | 41 | 76.07 | 0.0 | ||||||
| 03 | 14:45 | SW 15 | 16.09 | Mostly Cloudy | BKN050 | 37 | 22 | 42% | 42 | 76.1 | 0.0 | ||||||
| 03 | 13:45 | S 9 | 16.09 | Mostly Cloudy | BKN050 | 36 | 21 | 42% | 40 | 76.15 | 0.0 | ||||||
| 03 | 12:45 | S 11 | 16.09 | Mostly Cloudy | BKN055 | 36 | 22 | 44% | 41 | 76.2 | 0.0 | ||||||
| 03 | 11:47 | S 9 | 16.09 | Fair | CLR | 35 | 23 | 50% | 41 | 76.23 | 0.0 | ||||||
| 03 | 10:47 | W 9 | 16.09 | Fair | CLR | 34 | 22 | 50% | 38 | 76.25 | 0.0 | ||||||
| 03 | 09:47 | SW 9 | 16.09 | Fair | CLR | 32 | 23 | 59% | 37 | 76.28 | 0.0 | ||||||
| 03 | 08:47 | S 7 | 16.09 | Fair | CLR | 29 | 23 | 70% | 33 | 76.28 | 0.0 | ||||||
| 03 | 07:47 | Calm | 16.09 | Fair | CLR | 27 | 23 | 79% | 30 | 76.28 | 0.0 | ||||||
| 03 | 06:47 | SE 9 | 16.09 | Fair | CLR | 24 | 22 | 89% | 24 | 76.25 | 0.0 | ||||||
| Date | Time (cdt) | Wind (kph) | Vis. (km) | Weather | Sky Cond. | Air | Dwpt | Max. | Min. | Relative Humidity | Wind Chill (°C) | Heat Index (°C) | altimeter (cm) | sea level (mb) | 1 hr | 3 hr | 6 hr |
| 6 hour | |||||||||||||||||
| Temperature (ºC) | Pressure | Precipitation (cm) | |||||||||||||||